createdAt,value
2023-05-07T00:01:32.615Z,68.73
2023-05-07T00:04:03.580Z,68.67
2023-05-07T00:06:36.740Z,68.64
2023-05-07T00:09:08.269Z,68.53
2023-05-07T00:11:39.188Z,68.23
2023-05-07T00:14:10.468Z,68.28
2023-05-07T00:16:41.230Z,68.35
2023-05-07T00:19:11.975Z,68.49
2023-05-07T00:21:42.800Z,68.59
2023-05-07T00:24:13.627Z,68.43
2023-05-07T00:26:44.680Z,68.48
2023-05-07T00:29:15.494Z,68.59
2023-05-07T00:31:46.347Z,68.40
2023-05-07T00:34:25.329Z,68.27
2023-05-07T00:36:56.132Z,68.46
2023-05-07T00:39:27.926Z,68.57
2023-05-07T00:41:59.147Z,68.58
2023-05-07T00:44:30.821Z,68.41
2023-05-07T00:47:03.684Z,68.59
2023-05-07T00:49:40.013Z,68.44
2023-05-07T00:52:11.777Z,68.33
2023-05-07T00:54:47.076Z,68.10
2023-05-07T00:57:18.437Z,68.17
2023-05-07T00:59:49.546Z,68.34
2023-05-07T01:02:20.737Z,68.31
2023-05-07T01:04:51.530Z,68.47
2023-05-07T01:07:22.966Z,68.53
2023-05-07T01:09:54.927Z,68.34
2023-05-07T01:12:28.785Z,68.80
2023-05-07T01:15:01.360Z,68.75
2023-05-07T01:17:35.209Z,68.89
2023-05-07T01:20:09.438Z,68.75
2023-05-07T01:22:41.540Z,68.47
2023-05-07T01:25:14.751Z,68.68
2023-05-07T01:27:48.770Z,68.66
2023-05-07T01:30:26.082Z,68.63
2023-05-07T01:33:03.924Z,68.71
2023-05-07T01:35:39.944Z,68.99
2023-05-07T01:38:11.574Z,68.94
2023-05-07T01:40:42.772Z,69.16
2023-05-07T01:43:14.712Z,69.16
2023-05-07T01:45:47.135Z,69.08
2023-05-07T01:48:18.195Z,68.92
2023-05-07T01:50:49.420Z,69.12
2023-05-07T01:53:20.927Z,68.92
2023-05-07T01:55:52.011Z,69.16
2023-05-07T01:58:25.797Z,68.97
2023-05-07T02:00:59.247Z,69.30
2023-05-07T02:03:32.061Z,69.26
2023-05-07T02:06:09.089Z,69.34
2023-05-07T02:08:42.405Z,69.18
2023-05-07T02:11:14.746Z,69.16
2023-05-07T02:13:45.463Z,69.09
2023-05-07T02:16:16.907Z,69.13
2023-05-07T02:18:47.989Z,69.01
2023-05-07T02:21:19.076Z,69.05
2023-05-07T02:23:49.815Z,68.89
2023-05-07T02:26:22.752Z,69.04
2023-05-07T02:28:54.908Z,69.15
2023-05-07T02:31:25.932Z,69.21
2023-05-07T02:33:56.911Z,69.34
2023-05-07T02:36:28.293Z,69.10
2023-05-07T02:39:07.338Z,69.05
2023-05-07T02:41:38.526Z,69.19
2023-05-07T02:44:10.426Z,69.13
2023-05-07T02:46:41.524Z,69.20
2023-05-07T02:49:13.775Z,69.10
2023-05-07T02:51:44.518Z,69.32
2023-05-07T02:54:19.708Z,69.33
2023-05-07T02:56:50.589Z,69.54
2023-05-07T02:59:21.270Z,69.59
2023-05-07T03:01:52.110Z,69.43
2023-05-07T03:04:23.321Z,69.46
2023-05-07T03:06:54.086Z,69.43
2023-05-07T03:09:24.961Z,69.36
2023-05-07T03:11:55.751Z,69.38
2023-05-07T03:14:26.528Z,69.47
2023-05-07T03:16:59.988Z,69.58
2023-05-07T03:19:31.722Z,69.84
2023-05-07T03:22:02.856Z,69.64
2023-05-07T03:24:33.670Z,69.62
2023-05-07T03:27:04.472Z,69.87
2023-05-07T03:29:35.441Z,69.84
2023-05-07T03:32:07.022Z,69.78
2023-05-07T03:34:37.872Z,69.82
2023-05-07T03:37:08.742Z,70.07
2023-05-07T03:39:39.439Z,69.80
2023-05-07T03:42:10.315Z,69.96
2023-05-07T03:44:41.933Z,69.84
2023-05-07T03:47:14.331Z,69.77
2023-05-07T03:49:45.066Z,70.29
2023-05-07T03:52:16.676Z,69.80
2023-05-07T03:54:47.438Z,69.67
2023-05-07T03:57:18.346Z,69.68
2023-05-07T03:59:49.162Z,69.98
2023-05-07T04:02:19.882Z,69.56
2023-05-07T04:04:51.936Z,69.60
2023-05-07T04:07:23.132Z,69.47
2023-05-07T04:09:53.969Z,69.59
2023-05-07T04:12:24.859Z,69.58
2023-05-07T04:14:56.096Z,69.88
2023-05-07T04:17:28.010Z,69.95
2023-05-07T04:19:58.750Z,69.92
2023-05-07T04:22:29.992Z,70.11
2023-05-07T04:25:01.608Z,69.81
2023-05-07T04:27:34.061Z,69.94
2023-05-07T04:30:05.068Z,69.76
2023-05-07T04:32:40.226Z,69.81
2023-05-07T04:35:11.926Z,69.78
2023-05-07T04:37:43.358Z,70.07
2023-05-07T04:40:15.417Z,69.91
2023-05-07T04:42:46.436Z,70.11
2023-05-07T04:45:17.461Z,70.06
2023-05-07T04:47:49.126Z,70.20
2023-05-07T04:50:21.329Z,70.14
2023-05-07T04:52:52.876Z,70.13
2023-05-07T04:55:23.706Z,70.11
2023-05-07T04:57:55.431Z,70.15
2023-05-07T05:00:27.340Z,69.91
2023-05-07T05:02:58.586Z,69.89
2023-05-07T05:05:29.556Z,69.82
2023-05-07T05:08:00.306Z,69.88
2023-05-07T05:10:31.298Z,69.77
2023-05-07T05:13:02.031Z,69.97
2023-05-07T05:15:34.059Z,69.60
2023-05-07T05:18:05.480Z,69.70
2023-05-07T05:20:36.768Z,69.60
2023-05-07T05:23:07.563Z,69.89
2023-05-07T05:25:38.409Z,70.11
2023-05-07T05:28:09.337Z,70.09
2023-05-07T05:30:41.258Z,69.84
2023-05-07T05:33:12.240Z,69.66
2023-05-07T05:35:43.124Z,69.59
2023-05-07T05:38:15.835Z,69.70
2023-05-07T05:40:47.166Z,69.74
2023-05-07T05:43:18.417Z,69.61
2023-05-07T05:45:49.254Z,69.48
2023-05-07T05:48:20.770Z,69.26
2023-05-07T05:50:51.731Z,69.05
2023-05-07T05:53:22.916Z,68.91
2023-05-07T05:55:54.092Z,68.86
2023-05-07T05:58:24.873Z,68.72
2023-05-07T06:00:59.249Z,68.78
2023-05-07T06:03:30.163Z,68.75
2023-05-07T06:06:02.827Z,68.76
2023-05-07T06:08:34.260Z,68.71
2023-05-07T06:11:05.335Z,68.63
2023-05-07T06:13:37.842Z,68.51
2023-05-07T06:16:09.914Z,68.45
2023-05-07T06:18:41.165Z,68.62
2023-05-07T06:21:11.866Z,68.59
2023-05-07T06:23:43.622Z,68.22
2023-05-07T06:26:14.927Z,68.27
2023-05-07T06:28:47.292Z,68.51
2023-05-07T06:31:22.008Z,68.68
2023-05-07T06:34:00.173Z,68.61
2023-05-07T06:36:36.597Z,68.63
2023-05-07T06:39:14.056Z,68.79
2023-05-07T06:41:44.738Z,68.54
2023-05-07T06:44:22.264Z,68.46
2023-05-07T06:47:03.421Z,68.31
2023-05-07T06:49:34.321Z,68.19
2023-05-07T06:52:05.724Z,68.18
2023-05-07T06:54:36.723Z,68.19
2023-05-07T06:57:07.506Z,68.08
2023-05-07T06:59:38.658Z,67.97
2023-05-07T07:02:09.631Z,67.91
2023-05-07T07:04:41.282Z,67.87
2023-05-07T07:07:13.653Z,67.88
2023-05-07T07:09:45.077Z,67.81
2023-05-07T07:12:17.690Z,67.81
2023-05-07T07:14:48.559Z,67.52
2023-05-07T07:17:19.667Z,67.23
2023-05-07T07:19:50.598Z,66.69
2023-05-07T07:22:21.654Z,66.57
2023-05-07T07:24:52.492Z,66.28
2023-05-07T07:27:23.441Z,65.74
2023-05-07T07:29:54.249Z,65.57
2023-05-07T07:32:25.422Z,65.69
2023-05-07T07:34:57.479Z,65.99
2023-05-07T07:37:28.322Z,66.14
2023-05-07T07:39:59.094Z,65.98
2023-05-07T07:42:30.297Z,66.06
2023-05-07T07:45:02.370Z,66.01
2023-05-07T07:51:54.972Z,65.33
2023-05-07T07:54:28.027Z,65.12
2023-05-07T07:57:03.579Z,64.78
2023-05-07T07:59:37.003Z,64.92
2023-05-07T08:02:29.291Z,64.87
2023-05-07T08:07:46.473Z,63.97
2023-05-07T08:10:23.293Z,64.05
2023-05-07T08:13:00.496Z,63.64
2023-05-07T08:15:31.311Z,63.63
2023-05-07T08:18:02.967Z,63.89
2023-05-07T08:20:40.834Z,64.09
2023-05-07T08:23:14.524Z,64.35
2023-05-07T08:25:45.805Z,64.39
2023-05-07T08:32:03.507Z,63.32
2023-05-07T08:34:34.596Z,62.49
2023-05-07T08:37:06.959Z,62.73
2023-05-07T08:39:44.854Z,62.90
2023-05-07T08:42:20.750Z,62.53
2023-05-07T08:45:03.382Z,61.81
2023-05-07T08:48:03.418Z,61.11
2023-05-07T08:50:39.098Z,61.26
2023-05-07T08:53:11.676Z,61.44
2023-05-07T08:55:43.235Z,61.40
2023-05-07T08:58:14.028Z,61.98
2023-05-07T09:00:49.089Z,60.70
2023-05-07T09:03:26.901Z,60.11
2023-05-07T09:05:58.554Z,59.22
2023-05-07T09:08:34.245Z,58.83
2023-05-07T09:11:06.346Z,59.04
2023-05-07T09:13:37.662Z,59.23
2023-05-07T09:16:23.180Z,59.16
2023-05-07T09:18:57.340Z,58.76
2023-05-07T09:21:28.864Z,58.34
2023-05-07T09:24:03.858Z,57.59
2023-05-07T09:26:44.956Z,57.34
2023-05-07T09:29:18.162Z,57.05
2023-05-07T09:31:54.681Z,56.90
2023-05-07T09:34:25.666Z,57.45
2023-05-07T09:37:01.392Z,57.02
2023-05-07T09:39:42.742Z,56.98
2023-05-07T09:42:15.974Z,57.10
2023-05-07T09:44:51.042Z,57.07
2023-05-07T09:47:31.126Z,56.57
2023-05-07T09:50:08.822Z,56.67
2023-05-07T09:52:43.068Z,56.78
2023-05-07T09:59:30.006Z,56.90
2023-05-07T10:02:05.031Z,56.50
2023-05-07T10:04:42.642Z,55.99
2023-05-07T10:07:14.601Z,54.86
2023-05-07T10:09:49.173Z,54.59
2023-05-07T10:12:29.082Z,54.12
2023-05-07T10:15:00.149Z,54.23
2023-05-07T10:17:32.044Z,53.96
2023-05-07T10:20:17.509Z,52.68
2023-05-07T10:22:51.024Z,52.38
2023-05-07T10:25:31.667Z,52.66
2023-05-07T10:28:12.462Z,52.42
2023-05-07T10:30:58.153Z,51.87
2023-05-07T10:33:32.085Z,51.90
2023-05-07T10:36:05.715Z,51.96
2023-05-07T10:38:37.350Z,51.59
2023-05-07T10:41:08.335Z,51.69
2023-05-07T10:43:49.057Z,51.80
2023-05-07T10:46:37.389Z,51.84
2023-05-07T10:49:18.573Z,52.48
2023-05-07T10:52:16.969Z,52.69
2023-05-07T10:55:28.763Z,52.60
2023-05-07T11:01:54.032Z,52.45
2023-05-07T11:04:32.698Z,53.07
2023-05-07T11:07:35.876Z,53.35
2023-05-07T11:10:22.617Z,52.69
2023-05-07T11:13:11.214Z,51.82
2023-05-07T11:20:51.791Z,51.23
2023-05-07T11:24:01.614Z,51.34
2023-05-07T11:26:45.929Z,51.69
2023-05-07T11:29:23.406Z,51.83
2023-05-07T11:32:01.507Z,52.18
2023-05-07T11:34:41.441Z,52.11
2023-05-07T11:37:13.625Z,51.67
2023-05-07T11:40:05.095Z,51.73
2023-05-07T11:42:42.214Z,51.82
2023-05-07T11:45:14.337Z,51.55
2023-05-07T11:47:46.393Z,51.41
2023-05-07T11:50:17.513Z,51.47
2023-05-07T11:53:00.554Z,51.53
2023-05-07T11:55:31.344Z,51.46
2023-05-07T11:58:02.088Z,51.62
2023-05-07T12:00:32.808Z,51.78
2023-05-07T12:03:09.605Z,51.37
2023-05-07T12:05:44.207Z,51.55
2023-05-07T12:08:17.747Z,51.39
2023-05-07T12:10:54.768Z,51.09
2023-05-07T12:13:29.344Z,51.05
2023-05-07T12:20:48.419Z,50.96
2023-05-07T12:23:24.857Z,50.55
2023-05-07T12:25:55.655Z,50.44
2023-05-07T12:28:26.701Z,50.02
2023-05-07T12:31:14.242Z,50.26
2023-05-07T12:33:45.798Z,50.66
2023-05-07T12:36:17.521Z,50.34
2023-05-07T12:39:01.742Z,49.97
2023-05-07T12:42:03.048Z,50.05
2023-05-07T12:48:31.584Z,50.32
2023-05-07T12:51:11.560Z,49.97
2023-05-07T12:58:25.448Z,50.02
2023-05-07T13:01:02.619Z,49.81
2023-05-07T13:03:35.665Z,49.70
2023-05-07T13:06:17.760Z,49.36
2023-05-07T13:08:50.828Z,49.28
2023-05-07T13:11:22.213Z,49.27
2023-05-07T13:13:53.608Z,49.20
2023-05-07T13:16:27.374Z,49.20
2023-05-07T13:19:00.635Z,49.11
2023-05-07T13:21:32.971Z,48.83
2023-05-07T13:24:03.820Z,48.68
2023-05-07T13:26:35.055Z,48.86
2023-05-07T13:29:05.826Z,48.98
2023-05-07T13:31:37.690Z,48.84
2023-05-07T13:34:09.680Z,48.75
2023-05-07T13:36:41.068Z,48.71
2023-05-07T13:39:11.934Z,48.23
2023-05-07T13:41:43.894Z,48.24
2023-05-07T13:44:14.729Z,48.27
2023-05-07T13:46:45.590Z,48.13
2023-05-07T13:49:16.382Z,48.19
2023-05-07T13:51:47.155Z,47.80
2023-05-07T13:54:21.198Z,47.90
2023-05-07T14:01:23.616Z,48.23
2023-05-07T14:03:54.555Z,48.27
2023-05-07T14:06:50.877Z,48.10
2023-05-07T14:13:31.976Z,48.40
2023-05-07T14:16:06.172Z,48.14
2023-05-07T14:18:40.836Z,47.93
2023-05-07T14:21:11.699Z,47.85
2023-05-07T14:23:42.416Z,47.64
2023-05-07T14:26:13.655Z,47.16
2023-05-07T14:28:48.161Z,47.17
2023-05-07T14:31:29.244Z,47.28
2023-05-07T14:38:33.977Z,47.58
2023-05-07T14:41:07.258Z,47.40
2023-05-07T14:43:42.339Z,47.69
2023-05-07T14:46:12.218Z,47.46
2023-05-07T14:48:43.664Z,47.36
2023-05-07T14:51:15.486Z,47.20
2023-05-07T14:53:46.450Z,47.23
2023-05-07T14:56:21.423Z,47.45
2023-05-07T14:58:55.262Z,47.39
2023-05-07T15:01:27.926Z,47.49
2023-05-07T15:03:59.071Z,47.44
2023-05-07T15:06:30.584Z,47.20
2023-05-07T15:09:02.036Z,46.86
2023-05-07T15:11:32.883Z,46.97
2023-05-07T15:15:16.740Z,47.07
2023-05-07T15:17:47.993Z,47.23
2023-05-07T15:20:22.034Z,47.41
2023-05-07T15:22:54.247Z,47.36
2023-05-07T15:25:25.562Z,47.34
2023-05-07T15:27:57.088Z,47.19
2023-05-07T15:30:29.179Z,46.94
2023-05-07T15:33:00.714Z,46.91
2023-05-07T15:35:44.134Z,46.96
2023-05-07T15:38:15.073Z,46.86
2023-05-07T15:40:46.651Z,46.66
2023-05-07T15:43:17.732Z,46.51
2023-05-07T15:45:49.871Z,46.62
2023-05-07T15:48:21.460Z,46.63
2023-05-07T15:50:52.228Z,46.54
2023-05-07T15:53:23.208Z,46.53
2023-05-07T15:55:55.144Z,46.45
2023-05-07T15:58:26.148Z,46.49
2023-05-07T16:01:01.535Z,46.52
2023-05-07T16:03:33.276Z,46.45
2023-05-07T16:06:05.210Z,46.35
2023-05-07T16:08:36.424Z,46.36
2023-05-07T16:11:07.162Z,46.34
2023-05-07T16:13:39.002Z,46.53
2023-05-07T16:16:10.433Z,46.47
2023-05-07T16:18:41.691Z,46.40
2023-05-07T16:21:24.482Z,46.38
2023-05-07T16:24:17.669Z,46.36
2023-05-07T16:26:48.636Z,46.28
2023-05-07T16:29:20.843Z,46.25
2023-05-07T16:31:52.008Z,46.36
2023-05-07T16:34:23.460Z,46.30
2023-05-07T16:36:56.046Z,46.02
2023-05-07T16:39:30.000Z,46.27
2023-05-07T16:42:00.724Z,46.31
2023-05-07T16:44:34.406Z,46.47
2023-05-07T16:47:05.184Z,46.64
2023-05-07T16:55:32.536Z,46.52
2023-05-07T17:36:33.122Z,45.85
2023-05-07T17:39:01.144Z,45.61
2023-05-07T17:41:29.362Z,45.57
2023-05-07T17:48:35.327Z,46.02
2023-05-07T18:12:17.716Z,46.76
2023-05-07T18:14:47.445Z,46.94
2023-05-07T18:17:16.989Z,47.16
2023-05-07T18:19:45.723Z,47.15
2023-05-07T18:22:15.139Z,47.44
2023-05-07T18:24:45.788Z,47.77
2023-05-07T18:27:13.785Z,47.97
2023-05-07T18:29:42.066Z,47.94
2023-05-07T18:32:12.927Z,47.99
2023-05-07T18:34:41.195Z,48.26
2023-05-07T18:37:10.730Z,48.45
2023-05-07T18:39:40.324Z,48.42
2023-05-07T18:42:08.710Z,48.52
2023-05-07T18:44:37.865Z,48.71
2023-05-07T18:47:07.335Z,49.04
2023-05-07T18:49:36.653Z,49.50
2023-05-07T18:52:05.144Z,49.28
2023-05-07T18:54:33.253Z,49.65
2023-05-07T18:57:01.352Z,49.42
2023-05-07T18:59:29.688Z,49.57
2023-05-07T19:01:58.375Z,49.69
2023-05-07T19:04:27.148Z,49.71
2023-05-07T19:06:55.485Z,49.95
2023-05-07T19:09:23.940Z,49.99
2023-05-07T19:11:51.922Z,49.99
2023-05-07T19:14:20.544Z,50.17
2023-05-07T19:16:49.414Z,50.30
2023-05-07T19:19:26.138Z,50.35
2023-05-07T19:21:54.314Z,50.42
2023-05-07T19:24:22.592Z,50.54
2023-05-07T19:26:51.839Z,50.70
2023-05-07T19:29:19.835Z,50.82
2023-05-07T19:31:48.104Z,50.86
2023-05-07T19:34:16.448Z,51.04
2023-05-07T19:36:44.779Z,51.13
2023-05-07T19:39:14.208Z,51.34
2023-05-07T19:41:42.537Z,51.66
2023-05-07T19:44:11.085Z,51.87
2023-05-07T19:46:42.629Z,51.86
2023-05-07T19:49:12.967Z,52.16
2023-05-07T19:51:41.552Z,52.07
2023-05-07T19:54:09.910Z,52.11
2023-05-07T19:56:39.337Z,52.13
2023-05-07T19:59:08.457Z,52.32
2023-05-07T20:01:38.777Z,52.38
2023-05-07T20:04:07.280Z,52.60
2023-05-07T20:06:35.473Z,52.63
2023-05-07T20:09:04.091Z,52.59
2023-05-07T20:11:32.736Z,52.68
2023-05-07T20:14:00.857Z,52.83
2023-05-07T20:16:29.511Z,52.92
2023-05-07T20:18:58.036Z,53.12
2023-05-07T20:21:27.079Z,53.03
2023-05-07T20:23:56.194Z,53.23
2023-05-07T20:26:25.813Z,53.47
2023-05-07T20:28:53.966Z,53.40
2023-05-07T20:31:24.076Z,53.67
2023-05-07T20:33:54.373Z,53.73
2023-05-07T20:36:25.386Z,53.76
2023-05-07T20:39:26.952Z,53.92
2023-05-07T20:41:55.090Z,54.05
2023-05-07T20:44:24.018Z,53.96
2023-05-07T20:46:58.148Z,54.20
2023-05-07T20:49:26.530Z,54.06
2023-05-07T20:51:55.912Z,54.29
2023-05-07T20:54:54.281Z,54.33
2023-05-07T20:57:22.661Z,54.27
2023-05-07T21:04:23.044Z,54.58
2023-05-07T21:17:35.419Z,54.02
2023-05-07T21:20:07.474Z,53.90
2023-05-07T21:22:38.384Z,54.02
2023-05-07T21:25:14.853Z,54.12
2023-05-07T21:27:45.939Z,54.49
2023-05-07T21:30:18.475Z,54.57
2023-05-07T21:32:49.450Z,54.61
2023-05-07T21:35:20.361Z,54.65
2023-05-07T21:37:52.635Z,54.62
2023-05-07T21:40:25.941Z,54.93
2023-05-07T21:42:57.228Z,55.21
2023-05-07T21:45:28.221Z,55.51
2023-05-07T21:48:00.585Z,55.45
2023-05-07T21:51:02.329Z,55.49
2023-05-07T22:02:55.789Z,56.00
2023-05-07T22:05:26.809Z,55.94
2023-05-07T22:07:57.663Z,56.16
2023-05-07T22:10:28.696Z,56.18
2023-05-07T22:12:59.478Z,56.25
2023-05-07T22:15:32.648Z,56.32
2023-05-07T22:18:08.112Z,56.29
2023-05-07T22:20:39.317Z,56.44
2023-05-07T22:23:10.196Z,56.47
2023-05-07T22:25:41.486Z,56.63
2023-05-07T22:28:12.422Z,56.67
2023-05-07T22:30:43.315Z,56.86
2023-05-07T22:33:16.782Z,56.97
2023-05-07T22:35:47.676Z,57.00
2023-05-07T22:38:18.547Z,57.28
2023-05-07T22:40:49.497Z,57.34
2023-05-07T22:43:20.643Z,57.48
2023-05-07T22:46:57.409Z,57.50
2023-05-07T22:49:28.288Z,57.65
2023-05-07T22:52:00.621Z,57.71
2023-05-07T22:54:34.042Z,57.75
2023-05-07T22:57:05.663Z,57.82
2023-05-07T22:59:36.696Z,58.00
2023-05-07T23:02:12.305Z,57.99
2023-05-07T23:12:29.100Z,58.26
2023-05-07T23:15:00.189Z,58.26
2023-05-07T23:17:30.997Z,58.15
2023-05-07T23:20:01.992Z,58.33
2023-05-07T23:22:57.160Z,58.65
2023-05-07T23:25:29.641Z,58.50
2023-05-07T23:28:00.852Z,58.68
2023-05-07T23:30:31.921Z,58.90
2023-05-07T23:33:03.179Z,58.55
2023-05-07T23:35:34.078Z,58.66
2023-05-07T23:38:05.223Z,58.81
2023-05-07T23:40:36.788Z,59.13
2023-05-07T23:43:08.177Z,58.74
2023-05-07T23:45:39.395Z,58.98
2023-05-07T23:48:10.507Z,58.96
2023-05-07T23:50:41.362Z,59.07
2023-05-07T23:53:12.300Z,58.85
2023-05-07T23:55:46.106Z,59.06
2023-05-07T23:58:16.978Z,59.04
